createdAt,value
2023-09-14T00:01:02.893Z,10.50
2023-09-14T00:03:30.705Z,10.50
2023-09-14T00:05:57.845Z,10.50
2023-09-14T00:08:24.821Z,10.40
2023-09-14T00:10:56.389Z,10.40
2023-09-14T00:13:23.596Z,10.40
2023-09-14T00:15:50.737Z,10.40
2023-09-14T00:18:17.770Z,10.40
2023-09-14T00:20:44.936Z,10.30
2023-09-14T00:23:11.977Z,10.30
2023-09-14T00:25:38.976Z,10.30
2023-09-14T00:28:06.432Z,10.20
2023-09-14T00:30:33.429Z,10.20
2023-09-14T00:33:00.365Z,10.20
2023-09-14T00:35:27.733Z,10.20
2023-09-14T00:37:54.708Z,10.20
2023-09-14T00:40:22.399Z,10.10
2023-09-14T00:42:52.407Z,10.10
2023-09-14T00:45:21.621Z,10.10
2023-09-14T00:47:55.640Z,10.00
2023-09-14T00:50:22.825Z,10.00
2023-09-14T00:52:58.281Z,10.10
2023-09-14T00:55:26.803Z,10.10
2023-09-14T00:57:53.942Z,10.10
2023-09-14T01:00:21.848Z,10.10
2023-09-14T01:02:53.787Z,10.20
2023-09-14T01:05:21.843Z,10.20
2023-09-14T01:07:49.240Z,10.20
2023-09-14T01:10:16.925Z,10.20
2023-09-14T01:12:46.688Z,10.20
2023-09-14T01:15:33.115Z,10.20
2023-09-14T01:18:37.207Z,10.30
2023-09-14T01:21:15.992Z,10.30
2023-09-14T01:23:51.743Z,10.30
2023-09-14T01:26:19.381Z,10.30
2023-09-14T01:28:46.448Z,10.30
2023-09-14T01:31:13.647Z,10.30
2023-09-14T01:33:40.718Z,10.30
2023-09-14T01:36:24.269Z,10.20
2023-09-14T01:38:54.347Z,10.20
2023-09-14T01:41:22.306Z,10.20
2023-09-14T01:43:53.477Z,10.10
2023-09-14T01:46:20.745Z,10.10
2023-09-14T01:48:47.901Z,10.00
2023-09-14T01:51:15.022Z,10.10
2023-09-14T01:53:41.946Z,10.00
2023-09-14T01:56:08.885Z,10.00
2023-09-14T01:58:35.806Z,9.90
2023-09-14T02:01:03.870Z,9.90
2023-09-14T02:03:31.246Z,9.90
2023-09-14T02:06:02.314Z,9.90
2023-09-14T02:08:32.894Z,9.90
2023-09-14T02:11:01.801Z,9.90
2023-09-14T02:13:29.288Z,9.90
2023-09-14T02:15:56.349Z,9.90
2023-09-14T02:18:23.368Z,9.90
2023-09-14T02:20:50.292Z,9.90
2023-09-14T02:23:18.997Z,9.90
2023-09-14T02:25:46.574Z,9.90
2023-09-14T02:28:15.209Z,9.90
2023-09-14T02:30:43.630Z,9.90
2023-09-14T02:33:10.862Z,9.80
2023-09-14T02:35:40.543Z,9.80
2023-09-14T02:38:08.423Z,9.70
2023-09-14T02:40:36.616Z,9.80
2023-09-14T02:43:03.747Z,9.80
2023-09-14T02:45:30.684Z,9.70
2023-09-14T02:47:57.644Z,9.70
2023-09-14T02:50:24.641Z,9.70
2023-09-14T02:52:51.660Z,9.70
2023-09-14T02:55:19.016Z,9.70
2023-09-14T02:57:46.035Z,9.70
2023-09-14T03:00:18.184Z,9.70
2023-09-14T03:02:46.351Z,9.70
2023-09-14T03:05:13.726Z,9.60
2023-09-14T03:07:40.736Z,9.60
2023-09-14T03:10:08.215Z,9.60
2023-09-14T03:12:35.226Z,9.50
2023-09-14T03:15:02.169Z,9.50
2023-09-14T03:17:29.156Z,9.60
2023-09-14T03:19:56.930Z,9.50
2023-09-14T03:22:23.886Z,9.50
2023-09-14T03:24:50.972Z,9.50
2023-09-14T03:27:18.124Z,9.40
2023-09-14T03:29:45.049Z,9.40
2023-09-14T03:32:12.227Z,9.40
2023-09-14T03:34:39.135Z,9.40
2023-09-14T03:37:06.514Z,9.30
2023-09-14T03:39:33.449Z,9.30
2023-09-14T03:42:00.372Z,9.20
2023-09-14T03:44:27.280Z,9.20
2023-09-14T03:46:54.254Z,9.20
2023-09-14T03:49:21.173Z,9.20
2023-09-14T03:51:48.145Z,9.20
2023-09-14T03:54:15.058Z,9.20
2023-09-14T03:56:42.038Z,9.10
2023-09-14T03:59:09.022Z,9.10
2023-09-14T04:01:36.045Z,9.10
2023-09-14T04:04:04.028Z,9.10
2023-09-14T04:06:31.122Z,9.00
2023-09-14T04:08:58.020Z,9.00
2023-09-14T04:11:25.004Z,9.00
2023-09-14T04:13:51.953Z,9.00
2023-09-14T04:16:19.072Z,9.00
2023-09-14T04:18:46.311Z,9.00
2023-09-14T04:21:13.537Z,9.00
2023-09-14T04:23:40.468Z,8.90
2023-09-14T04:26:07.430Z,8.90
2023-09-14T04:28:34.325Z,8.90
2023-09-14T04:31:03.860Z,8.90
2023-09-14T04:33:32.391Z,8.90
2023-09-14T04:36:01.783Z,8.80
2023-09-14T04:38:28.740Z,8.80
2023-09-14T04:40:55.668Z,8.80
2023-09-14T04:43:23.424Z,8.80
2023-09-14T04:45:50.518Z,8.80
2023-09-14T04:48:17.468Z,8.70
2023-09-14T04:50:44.774Z,8.70
2023-09-14T04:53:11.724Z,8.70
2023-09-14T04:55:38.762Z,8.70
2023-09-14T04:58:07.531Z,8.70
2023-09-14T05:00:35.501Z,8.70
2023-09-14T05:03:06.625Z,8.70
2023-09-14T05:05:33.963Z,8.70
2023-09-14T05:08:01.546Z,8.80
2023-09-14T05:10:28.566Z,8.80
2023-09-14T05:12:55.552Z,8.80
2023-09-14T05:15:22.590Z,8.80
2023-09-14T05:17:50.657Z,8.80
2023-09-14T05:20:18.858Z,8.80
2023-09-14T05:22:45.889Z,8.80
2023-09-14T05:25:12.882Z,8.80
2023-09-14T05:27:41.344Z,8.80
2023-09-14T05:30:10.425Z,8.80
2023-09-14T05:32:38.713Z,8.90
2023-09-14T05:35:07.850Z,8.90
2023-09-14T05:37:35.206Z,8.90
2023-09-14T05:40:11.294Z,8.90
2023-09-14T05:42:38.667Z,8.90
2023-09-14T05:45:13.133Z,9.00
2023-09-14T05:47:40.298Z,9.00
2023-09-14T05:50:09.846Z,9.10
2023-09-14T05:52:39.320Z,9.10
2023-09-14T05:55:07.063Z,9.10
2023-09-14T05:57:34.184Z,9.20
2023-09-14T06:00:01.547Z,9.20
2023-09-14T06:02:28.764Z,9.30
2023-09-14T06:05:05.275Z,9.30
2023-09-14T06:07:39.498Z,9.30
2023-09-14T06:10:07.247Z,9.40
2023-09-14T06:12:34.120Z,9.40
2023-09-14T06:15:01.065Z,9.50
2023-09-14T06:17:28.147Z,9.60
2023-09-14T06:19:55.122Z,9.60
2023-09-14T06:22:22.046Z,9.60
2023-09-14T06:24:49.302Z,9.70
2023-09-14T06:27:16.707Z,9.70
2023-09-14T06:29:43.804Z,9.70
2023-09-14T06:32:10.835Z,9.80
2023-09-14T06:34:37.719Z,9.80
2023-09-14T06:37:05.271Z,9.80
2023-09-14T06:39:32.246Z,9.90
2023-09-14T06:41:59.175Z,9.90
2023-09-14T06:44:26.793Z,10.00
2023-09-14T06:46:54.249Z,10.10
2023-09-14T06:49:21.730Z,10.10
2023-09-14T06:51:49.227Z,10.20
2023-09-14T06:54:16.243Z,10.20
2023-09-14T06:56:43.178Z,10.30
2023-09-14T06:59:10.119Z,10.30
2023-09-14T07:01:37.231Z,10.40
2023-09-14T07:04:04.574Z,10.40
2023-09-14T07:06:31.919Z,10.40
2023-09-14T07:08:58.940Z,10.50
2023-09-14T07:11:26.523Z,10.60
2023-09-14T07:13:53.603Z,10.60
2023-09-14T07:16:20.571Z,10.70
2023-09-14T07:18:47.695Z,10.70
2023-09-14T07:21:15.087Z,10.80
2023-09-14T07:23:42.702Z,11.00
2023-09-14T07:26:09.652Z,11.10
2023-09-14T07:28:37.067Z,11.10
2023-09-14T07:31:05.937Z,11.20
2023-09-14T07:33:33.463Z,11.20
2023-09-14T07:36:00.438Z,11.20
2023-09-14T07:38:27.371Z,11.20
2023-09-14T07:40:54.345Z,11.20
2023-09-14T07:43:21.262Z,11.30
2023-09-14T07:45:48.369Z,11.30
2023-09-14T07:48:15.364Z,11.40
2023-09-14T07:50:42.964Z,11.50
2023-09-14T07:53:10.752Z,11.60
2023-09-14T07:55:38.228Z,11.60
2023-09-14T07:58:07.695Z,11.70
2023-09-14T08:00:37.053Z,11.70
2023-09-14T08:03:04.917Z,11.70
2023-09-14T08:05:32.127Z,11.80
2023-09-14T08:07:59.161Z,11.80
2023-09-14T08:10:26.180Z,11.90
2023-09-14T08:12:53.833Z,12.00
2023-09-14T08:15:20.886Z,12.10
2023-09-14T08:17:47.848Z,12.20
2023-09-14T08:20:14.776Z,12.20
2023-09-14T08:22:41.661Z,12.10
2023-09-14T08:25:09.235Z,12.00
2023-09-14T08:27:39.773Z,12.10
2023-09-14T08:30:11.366Z,12.10
2023-09-14T08:32:39.247Z,12.20
2023-09-14T08:35:24.388Z,12.30
2023-09-14T08:37:55.398Z,12.20
2023-09-14T08:40:23.314Z,12.30
2023-09-14T08:42:54.968Z,12.40
2023-09-14T08:45:27.034Z,12.40
2023-09-14T08:47:55.387Z,12.50
2023-09-14T08:50:28.500Z,12.60
2023-09-14T08:52:55.851Z,12.60
2023-09-14T08:55:25.149Z,12.70
2023-09-14T08:57:53.508Z,12.70
2023-09-14T09:00:21.358Z,12.70
2023-09-14T09:02:53.461Z,12.80
2023-09-14T09:05:22.224Z,12.90
2023-09-14T09:07:49.818Z,12.90
2023-09-14T09:10:39.926Z,12.90
2023-09-14T09:13:06.991Z,13.00
2023-09-14T09:15:38.063Z,13.10
2023-09-14T09:18:08.095Z,13.20
2023-09-14T09:20:41.295Z,13.20
2023-09-14T09:23:09.364Z,13.30
2023-09-14T09:25:47.379Z,13.40
2023-09-14T09:28:14.365Z,13.40
2023-09-14T09:30:41.800Z,13.40
2023-09-14T09:33:09.442Z,13.50
2023-09-14T09:35:36.666Z,13.50
2023-09-14T09:38:15.455Z,13.40
2023-09-14T09:40:44.799Z,13.40
2023-09-14T09:43:16.172Z,13.40
2023-09-14T09:45:43.475Z,13.50
2023-09-14T09:48:11.230Z,13.50
2023-09-14T09:50:38.485Z,13.60
2023-09-14T09:53:11.799Z,13.70
2023-09-14T09:55:39.011Z,13.80
2023-09-14T09:58:08.437Z,13.80
2023-09-14T10:00:38.940Z,13.90
2023-09-14T10:03:07.024Z,14.00
2023-09-14T10:05:39.461Z,14.00
2023-09-14T10:08:22.319Z,14.10
2023-09-14T10:10:53.973Z,14.10
2023-09-14T10:13:25.418Z,14.10
2023-09-14T10:15:56.899Z,14.10
2023-09-14T10:18:26.207Z,14.10
2023-09-14T10:20:55.016Z,14.20
2023-09-14T10:23:23.594Z,14.10
2023-09-14T10:25:52.512Z,14.00
2023-09-14T10:28:22.076Z,14.00
2023-09-14T10:30:51.253Z,14.20
2023-09-14T10:33:18.622Z,14.20
2023-09-14T10:35:47.102Z,14.30
2023-09-14T10:38:15.689Z,14.20
2023-09-14T10:40:44.564Z,14.30
2023-09-14T10:43:12.516Z,14.30
2023-09-14T10:45:42.369Z,14.40
2023-09-14T10:48:19.901Z,14.50
2023-09-14T10:50:49.535Z,14.50
2023-09-14T10:53:16.683Z,14.50
2023-09-14T10:55:44.012Z,14.50
2023-09-14T10:58:13.769Z,14.60
2023-09-14T11:00:55.938Z,14.70
2023-09-14T11:03:25.468Z,14.80
2023-09-14T11:05:55.734Z,14.90
2023-09-14T11:08:23.531Z,14.90
2023-09-14T11:11:01.024Z,14.90
2023-09-14T11:13:32.447Z,14.90
2023-09-14T11:16:07.852Z,14.80
2023-09-14T11:18:54.726Z,14.90
2023-09-14T11:21:37.059Z,15.00
2023-09-14T11:24:06.053Z,15.00
2023-09-14T11:26:38.244Z,15.00
2023-09-14T11:29:08.494Z,15.00
2023-09-14T11:31:58.852Z,15.00
2023-09-14T11:34:28.416Z,15.00
2023-09-14T11:37:03.085Z,15.20
2023-09-14T11:39:37.103Z,15.20
2023-09-14T11:42:10.418Z,15.30
2023-09-14T11:44:54.117Z,15.30
2023-09-14T11:47:28.459Z,15.30
2023-09-14T11:50:05.752Z,15.30
2023-09-14T11:52:34.440Z,15.20
2023-09-14T11:55:02.585Z,15.30
2023-09-14T11:57:30.171Z,15.20
2023-09-14T11:59:57.162Z,15.40
2023-09-14T12:02:24.433Z,15.50
2023-09-14T12:04:53.014Z,15.50
2023-09-14T12:07:23.078Z,15.50
2023-09-14T12:09:50.709Z,15.50
2023-09-14T12:12:30.742Z,15.50
2023-09-14T12:15:02.916Z,15.60
2023-09-14T12:17:31.693Z,15.70
2023-09-14T12:20:01.216Z,15.80
2023-09-14T12:22:32.708Z,15.80
2023-09-14T12:25:01.738Z,15.80
2023-09-14T12:27:30.071Z,15.90
2023-09-14T12:29:58.385Z,15.90
2023-09-14T12:32:26.816Z,15.90
2023-09-14T12:34:54.172Z,15.80
2023-09-14T12:37:21.991Z,15.80
2023-09-14T12:39:53.613Z,15.80
2023-09-14T12:42:22.584Z,15.70
2023-09-14T12:44:50.729Z,15.80
2023-09-14T12:47:17.903Z,15.70
2023-09-14T12:49:45.609Z,15.70
2023-09-14T12:52:12.907Z,15.60
2023-09-14T12:54:43.018Z,15.60
2023-09-14T12:57:17.189Z,15.60
2023-09-14T13:00:26.743Z,15.60
2023-09-14T13:02:54.423Z,15.60
2023-09-14T13:05:23.615Z,15.60
2023-09-14T13:07:56.224Z,15.60
2023-09-14T13:10:28.170Z,15.50
2023-09-14T13:12:58.879Z,15.50
2023-09-14T13:15:29.361Z,15.50
2023-09-14T13:18:00.215Z,15.50
2023-09-14T13:20:28.078Z,15.50
2023-09-14T13:22:55.341Z,15.40
2023-09-14T13:25:27.489Z,15.40
2023-09-14T13:27:55.627Z,15.40
2023-09-14T13:30:23.026Z,15.40
2023-09-14T13:32:51.067Z,15.40
2023-09-14T13:35:22.095Z,15.50
2023-09-14T13:37:58.133Z,15.50
2023-09-14T13:40:29.720Z,15.60
2023-09-14T13:43:00.695Z,15.70
2023-09-14T13:45:31.406Z,15.80
2023-09-14T13:47:58.832Z,15.80
2023-09-14T13:50:26.180Z,15.80
2023-09-14T13:52:53.586Z,15.80
2023-09-14T13:55:20.566Z,15.90
2023-09-14T13:57:48.554Z,15.90
2023-09-14T14:00:17.686Z,15.90
2023-09-14T14:02:50.404Z,15.90
2023-09-14T14:05:18.377Z,15.90
2023-09-14T14:07:45.419Z,16.00
2023-09-14T14:10:13.257Z,16.00
2023-09-14T14:12:40.252Z,15.90
2023-09-14T14:15:09.371Z,15.90
2023-09-14T14:17:38.668Z,15.90
2023-09-14T14:20:09.090Z,15.90
2023-09-14T14:22:36.885Z,15.90
2023-09-14T14:25:05.058Z,16.00
2023-09-14T14:27:33.329Z,16.00
2023-09-14T14:30:00.402Z,15.90
2023-09-14T14:32:29.405Z,16.00
2023-09-14T14:34:56.614Z,16.00
2023-09-14T14:37:23.717Z,16.00
2023-09-14T14:39:52.514Z,16.00
2023-09-14T14:42:20.114Z,15.90
2023-09-14T14:44:47.279Z,16.00
2023-09-14T14:47:14.567Z,16.00
2023-09-14T14:49:41.528Z,16.10
2023-09-14T14:52:08.554Z,16.10
2023-09-14T14:54:35.916Z,16.20
2023-09-14T14:57:04.394Z,16.20
2023-09-14T14:59:32.647Z,16.20
2023-09-14T15:01:59.770Z,16.20
2023-09-14T15:04:26.705Z,16.10
2023-09-14T15:06:53.696Z,16.10
2023-09-14T15:09:20.631Z,16.00
2023-09-14T15:11:47.561Z,16.00
2023-09-14T15:14:14.492Z,16.00
2023-09-14T15:16:41.471Z,15.90
2023-09-14T15:19:08.629Z,15.80
2023-09-14T15:21:35.549Z,15.80
2023-09-14T15:24:02.510Z,15.80
2023-09-14T15:26:29.446Z,15.80
2023-09-14T15:28:58.160Z,15.90
2023-09-14T15:31:25.193Z,15.90
2023-09-14T15:33:52.241Z,15.90
2023-09-14T15:36:19.270Z,15.80
2023-09-14T15:38:46.772Z,15.80
2023-09-14T15:41:15.624Z,15.80
2023-09-14T15:43:42.872Z,15.70
2023-09-14T15:46:13.043Z,15.70
2023-09-14T15:48:41.689Z,15.70
2023-09-14T15:51:08.751Z,15.70
2023-09-14T15:53:37.723Z,15.60
2023-09-14T15:56:06.601Z,15.60
2023-09-14T15:58:33.865Z,15.60
2023-09-14T16:01:02.297Z,15.50
2023-09-14T16:03:29.699Z,15.50
2023-09-14T16:05:58.703Z,15.50
2023-09-14T16:08:25.648Z,15.50
2023-09-14T16:10:52.688Z,15.40
2023-09-14T16:13:19.646Z,15.40
2023-09-14T16:15:53.461Z,15.40
2023-09-14T16:18:20.797Z,15.30
2023-09-14T16:20:49.112Z,15.30
2023-09-14T16:23:16.301Z,15.30
2023-09-14T16:25:43.355Z,15.20
2023-09-14T16:28:12.912Z,15.20
2023-09-14T16:30:41.556Z,15.20
2023-09-14T16:33:09.148Z,15.20
2023-09-14T16:35:39.415Z,15.20
2023-09-14T16:38:06.552Z,15.10
2023-09-14T16:40:33.918Z,15.10
2023-09-14T16:43:01.364Z,15.10
2023-09-14T16:45:28.556Z,15.10
2023-09-14T16:47:57.185Z,15.10
2023-09-14T16:50:24.303Z,15.00
2023-09-14T16:52:51.721Z,14.90
2023-09-14T16:55:18.696Z,14.90
2023-09-14T16:57:48.114Z,14.90
2023-09-14T17:00:15.254Z,15.00
2023-09-14T17:02:42.304Z,14.90
2023-09-14T17:05:09.877Z,14.90
2023-09-14T17:07:39.477Z,14.90
2023-09-14T17:10:07.758Z,14.90
2023-09-14T17:12:35.200Z,14.80
2023-09-14T17:15:02.923Z,14.80
2023-09-14T17:17:30.362Z,14.70
2023-09-14T17:19:57.339Z,14.60
2023-09-14T17:22:25.829Z,14.60
2023-09-14T17:24:53.063Z,14.50
2023-09-14T17:27:20.247Z,14.40
2023-09-14T17:29:48.208Z,14.30
2023-09-14T17:32:15.405Z,14.30
2023-09-14T17:34:42.718Z,14.20
2023-09-14T17:37:09.786Z,14.10
2023-09-14T17:39:37.255Z,14.10
2023-09-14T17:42:04.844Z,14.00
2023-09-14T17:44:31.972Z,13.90
2023-09-14T17:46:59.160Z,13.90
2023-09-14T17:49:27.517Z,13.90
2023-09-14T17:51:55.608Z,13.90
2023-09-14T17:54:22.773Z,13.90
2023-09-14T17:56:50.059Z,13.90
2023-09-14T17:59:17.600Z,13.80
2023-09-14T18:01:44.859Z,13.70
2023-09-14T18:04:12.006Z,13.70
2023-09-14T18:06:39.037Z,13.70
2023-09-14T18:09:06.316Z,13.60
2023-09-14T18:11:33.694Z,13.50
2023-09-14T18:14:00.791Z,13.40
2023-09-14T18:16:27.878Z,13.40
2023-09-14T18:18:55.833Z,13.30
2023-09-14T18:21:22.881Z,13.30
2023-09-14T18:23:49.889Z,13.30
2023-09-14T18:26:16.900Z,13.30
2023-09-14T18:28:43.848Z,13.30
2023-09-14T18:31:11.733Z,13.20
2023-09-14T18:33:38.868Z,13.20
2023-09-14T18:36:05.976Z,13.20
2023-09-14T18:38:32.895Z,13.20
2023-09-14T18:41:02.066Z,13.10
2023-09-14T18:43:29.207Z,13.10
2023-09-14T18:45:56.327Z,13.20
2023-09-14T18:48:25.477Z,13.20
2023-09-14T18:51:03.860Z,13.10
2023-09-14T18:53:31.968Z,13.20
2023-09-14T18:56:00.116Z,13.20
2023-09-14T19:00:57.821Z,13.20
2023-09-14T19:03:27.439Z,13.10
2023-09-14T19:05:56.527Z,13.10
2023-09-14T19:08:23.544Z,13.10
2023-09-14T19:10:55.753Z,13.10
2023-09-14T19:13:23.177Z,13.10
2023-09-14T19:15:50.571Z,13.00
2023-09-14T19:18:17.623Z,13.00
2023-09-14T19:20:50.236Z,12.90
2023-09-14T19:23:17.288Z,12.90
2023-09-14T19:25:44.309Z,12.80
2023-09-14T19:28:11.768Z,12.70
2023-09-14T19:30:42.300Z,12.70
2023-09-14T19:33:09.311Z,12.60
2023-09-14T19:35:36.368Z,12.60
2023-09-14T19:38:04.767Z,12.50
2023-09-14T19:40:31.849Z,12.40
2023-09-14T19:42:59.584Z,12.40
2023-09-14T19:45:26.518Z,12.30
2023-09-14T19:47:54.687Z,12.30
2023-09-14T19:50:21.957Z,12.20
2023-09-14T19:52:48.905Z,12.20
2023-09-14T19:55:15.834Z,12.10
2023-09-14T19:57:42.891Z,12.10
2023-09-14T20:00:10.211Z,12.10
2023-09-14T20:02:37.890Z,12.10
2023-09-14T20:05:05.168Z,12.10
2023-09-14T20:07:32.081Z,12.10
2023-09-14T20:09:59.403Z,12.10
2023-09-14T20:12:26.483Z,12.00
2023-09-14T20:14:53.376Z,12.00
2023-09-14T20:17:20.446Z,11.90
2023-09-14T20:19:48.090Z,11.90
2023-09-14T20:22:17.881Z,11.90
2023-09-14T20:24:45.307Z,11.90
2023-09-14T20:27:13.304Z,11.90
2023-09-14T20:29:40.270Z,11.90
2023-09-14T20:32:10.363Z,11.80
2023-09-14T20:34:37.394Z,11.80
2023-09-14T20:37:09.075Z,11.80
2023-09-14T20:39:36.105Z,11.80
2023-09-14T20:42:04.383Z,11.80
2023-09-14T20:44:31.329Z,11.80
2023-09-14T20:46:58.439Z,11.80
2023-09-14T20:49:26.989Z,11.80
2023-09-14T20:51:54.260Z,11.70
2023-09-14T20:54:21.403Z,11.80
2023-09-14T20:56:48.768Z,11.80
2023-09-14T20:59:18.359Z,11.80
2023-09-14T21:01:46.723Z,11.80
2023-09-14T21:04:13.760Z,11.80
2023-09-14T21:06:41.537Z,11.80
2023-09-14T21:09:08.757Z,11.80
2023-09-14T21:11:38.933Z,11.80
2023-09-14T21:14:10.090Z,11.80
2023-09-14T21:16:37.759Z,11.80
2023-09-14T21:19:08.451Z,11.80
2023-09-14T21:21:37.635Z,11.70
2023-09-14T21:24:05.156Z,11.70
2023-09-14T21:26:32.100Z,11.70
2023-09-14T21:28:59.047Z,11.70
2023-09-14T21:31:26.017Z,11.70
2023-09-14T21:33:52.945Z,11.70
2023-09-14T21:36:19.867Z,11.70
2023-09-14T21:38:46.968Z,11.70
2023-09-14T21:41:14.039Z,11.70
2023-09-14T21:43:42.221Z,11.70
2023-09-14T21:46:09.854Z,11.70
2023-09-14T21:48:37.189Z,11.70
2023-09-14T21:51:04.415Z,11.80
2023-09-14T21:53:31.408Z,11.80
2023-09-14T21:55:58.403Z,11.80
2023-09-14T21:58:25.970Z,11.70
2023-09-14T22:00:53.406Z,11.70
2023-09-14T22:03:20.933Z,11.80
2023-09-14T22:05:51.576Z,11.80
2023-09-14T22:08:19.380Z,11.80
2023-09-14T22:10:47.316Z,11.80
2023-09-14T22:13:15.851Z,11.80
2023-09-14T22:15:44.809Z,11.80
2023-09-14T22:18:15.546Z,11.80
2023-09-14T22:20:45.143Z,11.90
2023-09-14T22:23:12.283Z,11.90
2023-09-14T22:25:40.090Z,11.90
2023-09-14T22:28:08.145Z,11.90
2023-09-14T22:30:36.797Z,11.90
2023-09-14T22:33:05.310Z,11.90
2023-09-14T22:35:33.092Z,11.90
2023-09-14T22:38:00.212Z,11.90
2023-09-14T22:40:27.190Z,11.90
2023-09-14T22:42:54.166Z,11.90
2023-09-14T22:45:22.348Z,11.90
2023-09-14T22:47:50.302Z,11.90
2023-09-14T22:50:17.747Z,11.90
2023-09-14T22:52:45.692Z,11.90
2023-09-14T22:55:13.708Z,11.90
2023-09-14T22:57:41.612Z,11.90
2023-09-14T23:00:12.302Z,11.90
2023-09-14T23:02:40.096Z,11.90
2023-09-14T23:05:14.515Z,11.90
2023-09-14T23:07:42.618Z,11.80
2023-09-14T23:10:20.366Z,11.90
2023-09-14T23:12:47.755Z,11.80
2023-09-14T23:15:18.895Z,11.80
2023-09-14T23:17:50.322Z,11.80
2023-09-14T23:20:27.667Z,11.80
2023-09-14T23:22:58.254Z,11.80
2023-09-14T23:25:27.005Z,11.80
2023-09-14T23:27:54.313Z,11.80
2023-09-14T23:30:22.402Z,11.80
2023-09-14T23:32:52.631Z,11.80
2023-09-14T23:35:21.045Z,11.80
2023-09-14T23:37:48.520Z,11.80
2023-09-14T23:40:41.935Z,11.80
2023-09-14T23:43:11.947Z,11.80
2023-09-14T23:45:39.070Z,11.80
2023-09-14T23:48:08.318Z,11.80
2023-09-14T23:50:36.524Z,11.80
2023-09-14T23:53:03.935Z,11.70
2023-09-14T23:55:30.877Z,11.70
2023-09-14T23:57:58.178Z,11.70
